Nearby METAR Reports

Actuele Vliegveldwaarnemingen NL (METAR).Zie KNMI uitleg METAR hier

EHAM - Amsterdam/Schiph, Netherlands
Distance from station: ONO 18km
Updated: 22/11/2019 03:25
Helder
Helder
 Wind van ZO
Wind: ZO 17 km/h
Temperatuur: 4°C
Wind Chill: 0°C
Dauwpunt: 3°C
Vochtigheid: 93%
Barometer: 1003 hPa
Overzicht: Helder
Visibility: greater than 10 km
2019/11/22 02:25 EHAM 220225Z 14009KT CAVOK 04/03 Q1003 NOSIG
EHKD - DE KOOY/DE KOOY
Updated: 22/11/2019 03:25
Mist, Zwaar bewolkt
Mist, Zwaar bewolkt
 Wind van ZO
Wind: ZO 17 km/h
Temperatuur: 3°C
Wind Chill: -1°C
Dauwpunt: 2°C
Vochtigheid: 93%
Barometer: 1003 hPa
Overzicht: Mist
Clouds: Zwaar bewolkt
Visibility: 6 km
Cloud details: Few Clouds 1219 m
Zwaar bewolkt 5791 m
2019/11/22 02:25 EHKD 220225Z AUTO 14009KT 110V170 6000 BR FEW040 OVC190 03/02 Q1003 WHT `
 
EHLW - LEEUWARDEN/LEEUWARDEN
Updated: 22/11/2019 03:39
Mist, Zwaar bewolkt
Mist, Zwaar bewolkt
 Wind van ZO
Wind: ZO 11 km/h
Temperatuur: 3°C
Wind Chill: 0°C
Dauwpunt: 2°C
Vochtigheid: 93%
Barometer: 1004 hPa
Overzicht: Mist
Clouds: Zwaar bewolkt
Visibility: 5 km
Cloud details: Zwaar bewolkt 9449 m
2019/11/22 02:39 EHLW 220239Z AUTO 13006KT 090V150 5000 BR OVC310 03/02 Q1004 WHT
EHVK - VOLKEL/VOLKEL
Updated: 22/11/2019 03:25
Mist, Meestal bewolkt
Mist, Meestal bewolkt
 Wind van OZO
Wind: OZO 13 km/h
Temperatuur: 4°C
Wind Chill: 1°C
Dauwpunt: 3°C
Vochtigheid: 93%
Barometer: 1004 hPa
Overzicht: Mist
Clouds: Meestal bewolkt
Visibility: 8 km
Cloud details: Meestal bewolkt 1798 m
Meestal bewolkt 2073 m
Meestal bewolkt 2652 m
2019/11/22 02:25 EHVK 220225Z AUTO 12007KT 8000 BR BKN059 BKN068 BKN087 04/03 Q1004 BLU
 
EHFS - VLISSINGEN
Updated: 22/11/2019 03:25
Gedeeltelijk bewolkt
Gedeeltelijk bewolkt
 Wind van ZZO
Wind: ZZO 22 km/h
Temperatuur: 6°C
Wind Chill: 2°C
Dauwpunt: 5°C
Vochtigheid: 93%
Barometer: 1002 hPa
Clouds: Gedeeltelijk bewolkt
Visibility: 8 km
2019/11/22 02:25 EHFS 220225Z AUTO 15012KT 8000 NSC 06/05 Q1002 W///H///
EHEH - EINDHOVEN/EINDHOVEN
Updated: 22/11/2019 03:25
Zwaar bewolkt
Zwaar bewolkt
 Wind van ZO
Wind: ZO 11 km/h
Temperatuur: 5°C
Wind Chill: 2°C
Dauwpunt: 3°C
Vochtigheid: 87%
Barometer: 1004 hPa
Clouds: Zwaar bewolkt
Visibility: 10 km
Cloud details: Zwaar bewolkt 1981 m
2019/11/22 02:25 EHEH 220225Z AUTO 14006KT 9999 OVC065 05/03 Q1004 BLU
 
EHGR - GILZE-RIJEN/GILZE-RIJEN
Updated: 22/11/2019 03:42
Mist, Zwaar bewolkt
Mist, Zwaar bewolkt
 Wind van ZO
Wind: ZO 13 km/h
Temperatuur: 4°C
Wind Chill: 1°C
Dauwpunt: 3°C
Vochtigheid: 93%
Barometer: 1003 hPa
Overzicht: Mist
Clouds: Zwaar bewolkt
Visibility: 8 km
Cloud details: Few Clouds 1524 m
Gedeeltelijk bewolkt 1707 m
Zwaar bewolkt 1920 m
2019/11/22 02:42 EHGR 220242Z AUTO 14007KT 8000 BR FEW050 SCT056 OVC063 04/03 Q1003 BLU
EHDL - ARNHEM/DEELEN
Updated: 22/11/2019 03:25
Mist, Zwaar bewolkt
Mist, Zwaar bewolkt
 Wind van ZO
Wind: ZO 15 km/h
Temperatuur: 4°C
Wind Chill: 1°C
Dauwpunt: 3°C
Vochtigheid: 93%
Barometer: 1004 hPa
Overzicht: Mist
Clouds: Zwaar bewolkt
Visibility: 7 km
Cloud details: Zwaar bewolkt 5791 m
2019/11/22 02:25 EHDL 220225Z AUTO 14008KT 100V190 7000 BR OVC190 04/03 Q1004 WHT
 
EHBK - MAASTRICHT/MAASTRICHT-AACHEN
Updated: 22/11/2019 03:25
Gedeeltelijk bewolkt
Gedeeltelijk bewolkt
 Wind van ZZO
Wind: ZZO 15 km/h
Temperatuur: 7°C
Wind Chill: 4°C
Dauwpunt: 4°C
Vochtigheid: 81%
Barometer: 1004 hPa
Clouds: Gedeeltelijk bewolkt
Visibility: 10 km
2019/11/22 02:25 EHBK 220225Z AUTO 15008KT 9999 NSC 07/04 Q1004